createdAt,value
2018-09-01T00:00:28.890Z,57.00
2018-09-01T00:02:57.217Z,57.00
2018-09-01T00:05:25.533Z,57.10
2018-09-01T00:07:53.943Z,57.20
2018-09-01T00:10:22.269Z,57.10
2018-09-01T00:12:50.639Z,57.20
2018-09-01T00:15:19.160Z,57.20
2018-09-01T00:17:47.451Z,57.20
2018-09-01T00:20:15.759Z,57.20
2018-09-01T00:22:44.101Z,57.20
2018-09-01T00:25:12.462Z,57.20
2018-09-01T00:27:40.921Z,57.20
2018-09-01T00:30:09.275Z,57.20
2018-09-01T00:32:37.610Z,57.20
2018-09-01T00:35:06.003Z,57.10
2018-09-01T00:37:39.962Z,57.10
2018-09-01T00:40:08.293Z,57.20
2018-09-01T00:42:36.840Z,57.10
2018-09-01T00:45:05.179Z,57.10
2018-09-01T00:47:33.668Z,57.10
2018-09-01T00:50:02.016Z,57.10
2018-09-01T00:52:30.326Z,57.10
2018-09-01T00:54:58.669Z,57.20
2018-09-01T00:57:26.987Z,57.20
2018-09-01T00:59:55.322Z,57.30
2018-09-01T01:02:23.663Z,57.10
2018-09-01T01:04:51.988Z,57.30
2018-09-01T01:07:20.295Z,57.20
2018-09-01T01:09:48.684Z,57.30
2018-09-01T01:12:17.026Z,57.20
2018-09-01T01:14:45.378Z,57.20
2018-09-01T01:17:13.684Z,57.30
2018-09-01T01:19:42.079Z,57.20
2018-09-01T01:22:10.434Z,57.20
2018-09-01T01:24:39.421Z,57.30
2018-09-01T01:27:07.723Z,57.30
2018-09-01T01:29:36.047Z,57.30
2018-09-01T01:32:04.734Z,57.30
2018-09-01T01:34:33.061Z,57.20
2018-09-01T01:37:01.471Z,57.20
2018-09-01T01:39:29.793Z,57.30
2018-09-01T01:41:58.123Z,57.20
2018-09-01T01:44:26.445Z,57.30
2018-09-01T01:46:54.889Z,57.30
2018-09-01T01:49:23.238Z,57.20
2018-09-01T01:51:51.607Z,57.20
2018-09-01T01:54:19.942Z,57.20
2018-09-01T01:56:48.261Z,57.20
2018-09-01T01:59:16.628Z,57.30
2018-09-01T02:01:44.942Z,57.20
2018-09-01T02:04:13.289Z,57.20
2018-09-01T02:06:41.609Z,57.20
2018-09-01T02:09:10.045Z,57.20
2018-09-01T02:11:38.403Z,57.20
2018-09-01T02:14:06.772Z,57.20
2018-09-01T02:16:35.086Z,57.20
2018-09-01T02:19:03.419Z,57.20
2018-09-01T02:21:31.767Z,57.20
2018-09-01T02:24:00.125Z,57.20
2018-09-01T02:26:28.633Z,57.00
2018-09-01T02:28:56.964Z,57.00
2018-09-01T02:31:25.381Z,57.00
2018-09-01T02:33:53.838Z,57.00
2018-09-01T02:36:22.155Z,57.00
2018-09-01T02:38:50.489Z,57.00
2018-09-01T02:41:18.773Z,57.10
2018-09-01T02:43:47.187Z,57.00
2018-09-01T02:46:16.048Z,56.90
2018-09-01T02:48:44.400Z,57.00
2018-09-01T02:51:12.722Z,56.90
2018-09-01T02:53:41.001Z,57.00
2018-09-01T02:56:09.568Z,56.90
2018-09-01T02:58:37.884Z,56.90
2018-09-01T03:01:11.564Z,56.90
2018-09-01T03:03:40.107Z,56.90
2018-09-01T03:06:08.483Z,56.90
2018-09-01T03:08:36.790Z,56.80
2018-09-01T03:11:05.150Z,56.80
2018-09-01T03:13:33.468Z,56.80
2018-09-01T03:16:01.980Z,56.80
2018-09-01T03:18:30.483Z,56.80
2018-09-01T03:20:58.841Z,56.80
2018-09-01T03:23:27.169Z,56.70
2018-09-01T03:25:55.498Z,56.70
2018-09-01T03:28:23.867Z,56.70
2018-09-01T03:30:52.174Z,56.70
2018-09-01T03:33:20.544Z,56.70
2018-09-01T03:35:48.906Z,56.70
2018-09-01T03:38:17.193Z,56.70
2018-09-01T03:40:45.554Z,56.70
2018-09-01T03:43:13.872Z,56.70
2018-09-01T03:45:42.218Z,56.70
2018-09-01T03:48:10.584Z,56.70
2018-09-01T03:50:38.921Z,56.60
2018-09-01T03:53:07.269Z,56.60
2018-09-01T03:55:35.597Z,56.60
2018-09-01T03:58:04.493Z,56.60
2018-09-01T04:00:33.044Z,56.60
2018-09-01T04:03:01.428Z,56.60
2018-09-01T04:05:29.792Z,56.60
2018-09-01T04:07:58.309Z,56.60
2018-09-01T04:10:26.671Z,56.60
2018-09-01T04:12:55.188Z,56.50
2018-09-01T04:15:23.501Z,56.50
2018-09-01T04:17:51.865Z,56.50
2018-09-01T04:20:20.194Z,56.50
2018-09-01T04:22:48.562Z,56.50
2018-09-01T04:25:16.881Z,56.50
2018-09-01T04:27:45.256Z,56.50
2018-09-01T04:30:13.618Z,56.40
2018-09-01T04:32:42.006Z,56.40
2018-09-01T04:35:10.320Z,56.40
2018-09-01T04:37:38.699Z,56.40
2018-09-01T04:40:07.079Z,56.40
2018-09-01T04:42:35.400Z,56.30
2018-09-01T04:45:03.849Z,56.30
2018-09-01T04:47:32.242Z,56.20
2018-09-01T04:50:00.598Z,56.80
2018-09-01T04:52:29.173Z,56.20
2018-09-01T04:54:57.538Z,56.20
2018-09-01T04:57:25.961Z,56.20
2018-09-01T04:59:54.297Z,56.20
2018-09-01T05:02:22.780Z,56.20
2018-09-01T05:04:51.145Z,56.20
2018-09-01T05:07:19.527Z,56.20
2018-09-01T05:09:47.875Z,56.10
2018-09-01T05:12:16.193Z,56.10
2018-09-01T05:14:44.789Z,56.10
2018-09-01T05:17:13.151Z,56.10
2018-09-01T05:19:42.282Z,56.10
2018-09-01T05:22:15.181Z,56.10
2018-09-01T05:24:43.870Z,56.00
2018-09-01T05:27:12.207Z,55.90
2018-09-01T05:29:40.583Z,55.80
2018-09-01T05:32:08.927Z,55.70
2018-09-01T05:34:37.445Z,55.70
2018-09-01T05:37:05.786Z,55.70
2018-09-01T05:39:34.223Z,55.70
2018-09-01T05:42:02.602Z,55.70
2018-09-01T05:44:30.910Z,55.70
2018-09-01T05:46:59.304Z,55.70
2018-09-01T05:49:27.630Z,55.70
2018-09-01T05:51:56.003Z,55.70
2018-09-01T05:54:24.355Z,55.70
2018-09-01T05:56:52.709Z,55.70
2018-09-01T05:59:21.086Z,55.70
2018-09-01T06:01:49.446Z,55.70
2018-09-01T06:04:17.806Z,55.70
2018-09-01T06:06:46.366Z,55.70
2018-09-01T06:09:14.677Z,55.70
2018-09-01T06:11:43.120Z,55.70
2018-09-01T06:14:11.452Z,55.70
2018-09-01T06:16:39.792Z,55.70
2018-09-01T06:19:08.329Z,55.70
2018-09-01T06:21:36.681Z,55.70
2018-09-01T06:24:05.498Z,55.70
2018-09-01T06:26:33.843Z,55.60
2018-09-01T06:29:07.119Z,55.60
2018-09-01T06:31:35.520Z,55.60
2018-09-01T06:34:03.983Z,55.60
2018-09-01T06:36:32.324Z,55.60
2018-09-01T06:39:00.649Z,55.70
2018-09-01T06:41:29.059Z,55.70
2018-09-01T06:43:57.390Z,55.70
2018-09-01T06:46:25.830Z,55.70
2018-09-01T06:48:54.232Z,55.70
2018-09-01T06:51:22.586Z,55.60
2018-09-01T06:53:50.927Z,55.70
2018-09-01T06:56:19.274Z,55.70
2018-09-01T06:58:47.836Z,55.70
2018-09-01T07:01:16.265Z,55.60
2018-09-01T07:03:44.683Z,55.10
2018-09-01T07:06:13.142Z,54.80
2018-09-01T07:08:41.629Z,54.60
2018-09-01T07:11:09.935Z,54.50
2018-09-01T07:13:38.303Z,55.30
2018-09-01T07:16:06.681Z,56.10
2018-09-01T07:18:35.064Z,55.90
2018-09-01T07:21:03.425Z,55.10
2018-09-01T07:23:31.775Z,54.80
2018-09-01T07:26:00.082Z,54.40
2018-09-01T07:28:28.500Z,52.50
2018-09-01T07:30:57.163Z,51.80
2018-09-01T07:33:25.273Z,51.20
2018-09-01T07:35:53.734Z,50.30
2018-09-01T07:38:22.131Z,50.00
2018-09-01T07:40:50.446Z,49.40
2018-09-01T07:43:19.005Z,49.40
2018-09-01T07:45:47.319Z,49.30
2018-09-01T07:48:15.763Z,49.40
2018-09-01T07:50:44.139Z,49.40
2018-09-01T07:53:12.477Z,48.90
2018-09-01T07:55:40.836Z,48.30
2018-09-01T07:58:09.208Z,48.10
2018-09-01T08:00:37.598Z,48.30
2018-09-01T08:03:06.247Z,48.30
2018-09-01T08:05:34.623Z,48.40
2018-09-01T08:08:02.998Z,48.20
2018-09-01T08:10:31.354Z,48.20
2018-09-01T08:12:59.698Z,48.00
2018-09-01T08:15:28.246Z,47.90
2018-09-01T08:17:56.687Z,48.30
2018-09-01T08:20:25.104Z,48.30
2018-09-01T08:22:53.444Z,48.10
2018-09-01T08:25:21.804Z,48.20
2018-09-01T08:27:50.115Z,48.30
2018-09-01T08:30:18.541Z,48.30
2018-09-01T08:32:46.873Z,48.40
2018-09-01T08:35:15.270Z,48.50
2018-09-01T08:37:43.656Z,48.40
2018-09-01T08:40:12.292Z,48.50
2018-09-01T08:42:40.671Z,48.50
2018-09-01T08:45:09.253Z,48.00
2018-09-01T08:47:37.710Z,48.10
2018-09-01T08:50:06.154Z,48.10
2018-09-01T08:52:34.471Z,48.00
2018-09-01T08:55:02.940Z,48.00
2018-09-01T08:57:31.348Z,48.20
2018-09-01T08:59:59.755Z,48.10
2018-09-01T09:02:28.092Z,47.80
2018-09-01T09:04:56.584Z,47.80
2018-09-01T09:07:24.917Z,47.70
2018-09-01T09:09:53.348Z,47.30
2018-09-01T09:12:21.844Z,47.30
2018-09-01T09:14:50.241Z,47.20
2018-09-01T09:17:18.897Z,46.80
2018-09-01T09:19:47.215Z,46.80
2018-09-01T09:22:15.548Z,46.60
2018-09-01T09:24:43.915Z,46.30
2018-09-01T09:27:12.283Z,46.20
2018-09-01T09:29:40.676Z,46.30
2018-09-01T09:32:09.047Z,46.20
2018-09-01T09:34:37.421Z,45.60
2018-09-01T09:37:05.737Z,45.10
2018-09-01T09:39:34.071Z,45.00
2018-09-01T09:42:02.555Z,44.50
2018-09-01T09:44:30.981Z,44.00
2018-09-01T09:46:59.297Z,43.50
2018-09-01T09:49:27.633Z,43.30
2018-09-01T09:51:56.011Z,43.20
2018-09-01T09:54:24.731Z,43.20
2018-09-01T09:56:53.133Z,43.30
2018-09-01T09:59:21.502Z,43.30
2018-09-01T10:01:49.927Z,43.50
2018-09-01T10:04:18.286Z,43.20
2018-09-01T10:06:46.624Z,42.80
2018-09-01T10:09:16.071Z,42.50
2018-09-01T10:11:44.781Z,42.70
2018-09-01T10:14:13.234Z,42.90
2018-09-01T10:16:42.346Z,42.90
2018-09-01T10:19:10.719Z,42.80
2018-09-01T10:21:39.307Z,42.60
2018-09-01T10:24:07.684Z,42.60
2018-09-01T10:26:36.056Z,42.90
2018-09-01T10:29:04.617Z,42.50
2018-09-01T10:31:33.129Z,42.50
2018-09-01T10:34:01.473Z,42.30
2018-09-01T10:36:29.927Z,42.10
2018-09-01T10:38:58.791Z,42.10
2018-09-01T10:41:27.150Z,42.40
2018-09-01T10:43:55.544Z,42.40
2018-09-01T10:46:23.914Z,42.20
2018-09-01T10:48:53.044Z,42.60
2018-09-01T10:51:21.464Z,42.20
2018-09-01T10:53:49.758Z,42.60
2018-09-01T10:56:18.094Z,43.00
2018-09-01T10:58:46.594Z,42.90
2018-09-01T11:01:14.944Z,42.80
2018-09-01T11:03:43.303Z,43.10
2018-09-01T11:06:11.715Z,42.30
2018-09-01T11:08:40.144Z,42.00
2018-09-01T11:11:08.559Z,41.80
2018-09-01T11:13:38.400Z,41.50
2018-09-01T11:16:06.770Z,41.80
2018-09-01T11:18:35.108Z,42.50
2018-09-01T11:21:03.491Z,43.40
2018-09-01T11:23:31.989Z,43.80
2018-09-01T11:26:00.349Z,43.40
2018-09-01T11:28:28.663Z,42.60
2018-09-01T11:30:57.055Z,42.60
2018-09-01T11:33:25.603Z,42.50
2018-09-01T11:35:54.187Z,42.20
2018-09-01T11:38:22.519Z,41.60
2018-09-01T11:40:50.844Z,42.00
2018-09-01T11:43:19.232Z,42.30
2018-09-01T11:45:47.567Z,42.50
2018-09-01T11:48:16.002Z,43.40
2018-09-01T11:50:44.415Z,43.40
2018-09-01T11:53:12.768Z,42.80
2018-09-01T11:55:41.225Z,42.50
2018-09-01T11:58:09.593Z,42.10
2018-09-01T12:00:38.100Z,41.90
2018-09-01T12:03:07.093Z,42.00
2018-09-01T12:05:35.561Z,42.10
2018-09-01T12:08:04.127Z,42.30
2018-09-01T12:10:32.422Z,42.60
2018-09-01T12:13:00.786Z,42.70
2018-09-01T12:15:29.123Z,43.10
2018-09-01T12:17:57.487Z,42.80
2018-09-01T12:20:25.911Z,43.10
2018-09-01T12:22:54.564Z,43.10
2018-09-01T12:25:22.916Z,44.10
2018-09-01T12:27:51.729Z,44.70
2018-09-01T12:30:20.115Z,45.00
2018-09-01T12:32:48.593Z,43.90
2018-09-01T12:35:16.993Z,43.60
2018-09-01T12:37:45.314Z,43.20
2018-09-01T12:40:13.661Z,43.10
2018-09-01T12:42:42.030Z,43.30
2018-09-01T12:45:10.371Z,43.50
2018-09-01T12:47:38.680Z,43.40
2018-09-01T12:50:07.319Z,43.70
2018-09-01T12:52:35.661Z,44.00
2018-09-01T12:55:04.010Z,44.40
2018-09-01T12:57:32.454Z,44.50
2018-09-01T13:00:01.022Z,44.40
2018-09-01T13:02:29.424Z,44.50
2018-09-01T13:04:57.987Z,44.40
2018-09-01T13:07:26.347Z,45.10
2018-09-01T13:09:54.809Z,44.30
2018-09-01T13:12:23.188Z,44.10
2018-09-01T13:14:51.505Z,44.30
2018-09-01T13:17:19.848Z,44.50
2018-09-01T13:19:48.192Z,44.60
2018-09-01T13:22:16.539Z,44.80
2018-09-01T13:24:45.000Z,45.40
2018-09-01T13:27:13.350Z,45.50
2018-09-01T13:29:41.796Z,45.60
2018-09-01T13:32:10.359Z,45.80
2018-09-01T13:34:38.842Z,45.60
2018-09-01T13:37:07.259Z,44.70
2018-09-01T13:39:35.661Z,44.40
2018-09-01T13:42:04.039Z,44.00
2018-09-01T13:44:32.454Z,43.90
2018-09-01T13:47:01.021Z,43.90
2018-09-01T13:49:29.560Z,44.40
2018-09-01T13:51:57.899Z,44.40
2018-09-01T13:54:26.270Z,43.80
2018-09-01T13:56:54.698Z,43.20
2018-09-01T13:59:23.137Z,43.90
2018-09-01T14:01:51.602Z,44.20
2018-09-01T14:04:19.975Z,44.10
2018-09-01T14:06:48.302Z,44.30
2018-09-01T14:09:16.659Z,44.70
2018-09-01T14:11:45.187Z,44.40
2018-09-01T14:14:13.599Z,43.30
2018-09-01T14:16:41.880Z,43.00
2018-09-01T14:19:11.211Z,42.60
2018-09-01T14:21:39.601Z,42.50
2018-09-01T14:24:07.965Z,42.60
2018-09-01T14:26:36.291Z,42.70
2018-09-01T14:29:04.769Z,42.60
2018-09-01T14:31:33.238Z,42.70
2018-09-01T14:34:01.718Z,42.70
2018-09-01T14:36:30.229Z,42.60
2018-09-01T14:38:58.602Z,42.70
2018-09-01T14:41:27.101Z,42.70
2018-09-01T14:43:55.421Z,42.60
2018-09-01T14:46:23.789Z,42.80
2018-09-01T14:48:52.121Z,42.70
2018-09-01T14:51:20.612Z,42.70
2018-09-01T14:53:48.937Z,42.50
2018-09-01T14:56:17.539Z,42.40
2018-09-01T14:58:45.911Z,42.40
2018-09-01T15:01:14.420Z,42.50
2018-09-01T15:03:44.529Z,42.70
2018-09-01T15:06:12.882Z,42.60
2018-09-01T15:08:41.207Z,42.50
2018-09-01T15:11:09.573Z,42.60
2018-09-01T15:13:37.896Z,42.70
2018-09-01T15:16:06.233Z,42.50
2018-09-01T15:18:34.611Z,42.80
2018-09-01T15:21:02.988Z,42.90
2018-09-01T15:23:31.338Z,43.10
2018-09-01T15:25:59.838Z,43.10
2018-09-01T15:28:28.293Z,43.20
2018-09-01T15:30:56.602Z,43.20
2018-09-01T15:33:24.940Z,43.20
2018-09-01T15:35:53.291Z,43.40
2018-09-01T15:38:21.668Z,43.30
2018-09-01T15:40:50.089Z,43.20
2018-09-01T15:43:18.426Z,43.20
2018-09-01T15:45:46.746Z,43.30
2018-09-01T15:48:15.156Z,43.70
2018-09-01T15:50:43.605Z,43.80
2018-09-01T15:53:12.002Z,44.20
2018-09-01T15:55:40.329Z,43.50
2018-09-01T15:58:08.704Z,43.40
2018-09-01T16:00:37.054Z,43.60
2018-09-01T16:03:05.616Z,43.80
2018-09-01T16:05:33.930Z,44.30
2018-09-01T16:08:02.417Z,44.10
2018-09-01T16:10:30.906Z,44.10
2018-09-01T16:12:59.378Z,44.70
2018-09-01T16:15:27.905Z,44.70
2018-09-01T16:17:56.402Z,44.20
2018-09-01T16:20:24.717Z,44.10
2018-09-01T16:22:53.047Z,43.80
2018-09-01T16:25:22.304Z,43.70
2018-09-01T16:27:50.659Z,43.60
2018-09-01T16:30:19.141Z,43.50
2018-09-01T16:32:47.600Z,43.70
2018-09-01T16:35:15.966Z,43.70
2018-09-01T16:37:44.389Z,44.10
2018-09-01T16:40:12.761Z,44.20
2018-09-01T16:42:41.375Z,44.20
2018-09-01T16:45:09.993Z,44.30
2018-09-01T16:47:38.385Z,44.30
2018-09-01T16:50:07.150Z,44.40
2018-09-01T16:52:35.597Z,44.80
2018-09-01T16:55:03.965Z,44.20
2018-09-01T16:57:32.933Z,44.20
2018-09-01T17:00:01.342Z,44.30
2018-09-01T17:02:29.736Z,44.20
2018-09-01T17:04:58.136Z,44.20
2018-09-01T17:07:26.580Z,44.10
2018-09-01T17:09:54.957Z,44.00
2018-09-01T17:12:23.279Z,44.00
2018-09-01T17:14:51.839Z,44.00
2018-09-01T17:17:20.201Z,44.60
2018-09-01T17:19:48.539Z,44.10
2018-09-01T17:22:16.888Z,44.20
2018-09-01T17:24:45.884Z,44.30
2018-09-01T17:27:14.305Z,44.20
2018-09-01T17:29:42.710Z,44.50
2018-09-01T17:32:11.058Z,44.80
2018-09-01T17:34:39.641Z,44.90
2018-09-01T17:37:08.098Z,45.10
2018-09-01T17:39:36.624Z,45.20
2018-09-01T17:42:05.103Z,45.20
2018-09-01T17:44:33.448Z,45.30
2018-09-01T17:47:02.067Z,45.30
2018-09-01T17:49:30.769Z,45.50
2018-09-01T17:51:59.206Z,45.70
2018-09-01T17:54:27.607Z,45.90
2018-09-01T17:56:56.120Z,46.00
2018-09-01T17:59:24.447Z,46.00
2018-09-01T18:01:53.068Z,46.20
2018-09-01T18:04:21.790Z,46.40
2018-09-01T18:06:50.121Z,46.60
2018-09-01T18:09:18.428Z,46.90
2018-09-01T18:11:46.841Z,47.50
2018-09-01T18:14:15.264Z,47.40
2018-09-01T18:16:43.616Z,47.60
2018-09-01T18:19:12.009Z,47.90
2018-09-01T18:21:40.456Z,48.10
2018-09-01T18:24:08.834Z,48.40
2018-09-01T18:26:37.239Z,48.60
2018-09-01T18:29:06.227Z,48.70
2018-09-01T18:31:34.643Z,49.00
2018-09-01T18:34:03.193Z,49.10
2018-09-01T18:36:31.771Z,49.20
2018-09-01T18:39:00.189Z,49.30
2018-09-01T18:41:28.544Z,49.50
2018-09-01T18:43:57.749Z,49.60
2018-09-01T18:46:26.197Z,49.70
2018-09-01T18:48:54.779Z,49.90
2018-09-01T18:51:23.104Z,50.00
2018-09-01T18:53:51.518Z,50.10
2018-09-01T18:56:19.854Z,50.80
2018-09-01T18:58:48.215Z,50.40
2018-09-01T19:01:16.899Z,50.30
2018-09-01T19:03:45.296Z,50.50
2018-09-01T19:06:13.695Z,50.60
2018-09-01T19:08:42.049Z,50.70
2018-09-01T19:11:10.428Z,50.80
2018-09-01T19:13:38.935Z,50.80
2018-09-01T19:16:08.049Z,50.90
2018-09-01T19:18:36.795Z,51.00
2018-09-01T19:21:05.797Z,51.60
2018-09-01T19:23:34.531Z,50.70
2018-09-01T19:26:02.935Z,51.20
2018-09-01T19:28:31.279Z,51.20
2018-09-01T19:30:59.642Z,51.30
2018-09-01T19:33:28.024Z,51.40
2018-09-01T19:35:57.484Z,51.30
2018-09-01T19:38:25.807Z,51.00
2018-09-01T19:40:54.221Z,51.00
2018-09-01T19:43:22.567Z,51.10
2018-09-01T19:45:50.931Z,51.10
2018-09-01T19:48:19.308Z,51.10
2018-09-01T19:50:47.721Z,51.20
2018-09-01T19:53:16.059Z,51.20
2018-09-01T19:55:44.451Z,51.30
2018-09-01T19:58:12.817Z,51.20
2018-09-01T20:00:41.178Z,51.20
2018-09-01T20:03:09.815Z,51.30
2018-09-01T20:05:38.857Z,51.50
2018-09-01T20:08:07.251Z,51.60
2018-09-01T20:10:35.605Z,51.70
2018-09-01T20:13:04.221Z,52.60
2018-09-01T20:15:32.537Z,51.90
2018-09-01T20:18:01.020Z,52.20
2018-09-01T20:20:29.372Z,51.80
2018-09-01T20:22:57.782Z,51.90
2018-09-01T20:25:26.668Z,52.10
2018-09-01T20:27:55.077Z,52.30
2018-09-01T20:30:23.404Z,52.20
2018-09-01T20:32:51.771Z,52.30
2018-09-01T20:35:25.498Z,52.40
2018-09-01T20:37:53.920Z,52.40
2018-09-01T20:40:22.523Z,52.40
2018-09-01T20:42:50.871Z,52.50
2018-09-01T20:45:19.289Z,52.40
2018-09-01T20:47:47.669Z,52.50
2018-09-01T20:50:16.038Z,52.60
2018-09-01T20:52:44.507Z,52.60
2018-09-01T20:55:12.898Z,52.60
2018-09-01T20:57:41.305Z,52.60
2018-09-01T21:00:09.642Z,52.70
2018-09-01T21:02:38.003Z,52.70
2018-09-01T21:05:06.482Z,52.70
2018-09-01T21:07:34.989Z,53.40
2018-09-01T21:10:03.409Z,52.80
2018-09-01T21:12:31.731Z,52.80
2018-09-01T21:15:00.121Z,52.80
2018-09-01T21:17:29.230Z,52.80
2018-09-01T21:19:58.634Z,52.80
2018-09-01T21:22:27.091Z,52.80
2018-09-01T21:24:55.583Z,52.80
2018-09-01T21:27:23.935Z,52.80
2018-09-01T21:29:52.287Z,52.80
2018-09-01T21:32:20.632Z,52.80
2018-09-01T21:34:49.000Z,52.80
2018-09-01T21:37:17.347Z,52.80
2018-09-01T21:39:46.824Z,52.80
2018-09-01T21:42:15.227Z,52.80
2018-09-01T21:44:43.617Z,52.80
2018-09-01T21:47:12.098Z,52.70
2018-09-01T21:49:40.486Z,52.70
2018-09-01T21:52:09.019Z,52.70
2018-09-01T21:54:37.588Z,52.70
2018-09-01T21:57:06.595Z,52.70
2018-09-01T21:59:34.873Z,52.70
2018-09-01T22:02:08.565Z,52.70
2018-09-01T22:04:42.167Z,52.20
2018-09-01T22:07:10.636Z,52.70
2018-09-01T22:09:38.989Z,52.70
2018-09-01T22:12:07.409Z,52.70
2018-09-01T22:14:35.766Z,52.60
2018-09-01T22:17:04.261Z,52.70
2018-09-01T22:19:32.944Z,52.60
2018-09-01T22:22:01.376Z,52.60
2018-09-01T22:24:29.697Z,52.60
2018-09-01T22:26:58.094Z,52.50
2018-09-01T22:29:26.602Z,52.50
2018-09-01T22:31:55.102Z,52.40
2018-09-01T22:34:23.594Z,52.40
2018-09-01T22:36:52.194Z,52.50
2018-09-01T22:39:20.553Z,52.50
2018-09-01T22:41:49.321Z,52.30
2018-09-01T22:44:17.801Z,52.30
2018-09-01T22:46:46.349Z,52.30
2018-09-01T22:49:14.684Z,52.30
2018-09-01T22:51:43.120Z,52.30
2018-09-01T22:54:11.678Z,52.40
2018-09-01T22:56:39.968Z,52.20
2018-09-01T22:59:08.528Z,52.20
2018-09-01T23:01:36.821Z,52.30
2018-09-01T23:04:05.245Z,52.20
2018-09-01T23:06:33.840Z,52.20
2018-09-01T23:09:02.174Z,52.20
2018-09-01T23:11:30.526Z,52.70
2018-09-01T23:13:58.913Z,52.10
2018-09-01T23:16:27.201Z,52.10
2018-09-01T23:18:55.544Z,52.10
2018-09-01T23:21:23.878Z,52.10
2018-09-01T23:23:52.511Z,52.00
2018-09-01T23:26:20.800Z,52.00
2018-09-01T23:28:49.129Z,52.00
2018-09-01T23:31:17.437Z,52.00
2018-09-01T23:33:45.779Z,52.00
2018-09-01T23:36:14.095Z,51.90
2018-09-01T23:38:42.444Z,51.90
2018-09-01T23:41:10.811Z,52.50
2018-09-01T23:43:39.166Z,51.90
2018-09-01T23:46:07.774Z,51.80
2018-09-01T23:48:36.108Z,51.90
2018-09-01T23:51:04.485Z,51.80
2018-09-01T23:53:32.784Z,51.90
2018-09-01T23:56:01.144Z,51.80
2018-09-01T23:58:29.553Z,51.70
